DRK400 VQPR-VNKT
Flight info
| Callsign | DRK400 |
|---|---|
| Flight time | N/A |
| Altitude | 34000 |
| Route | PRO G348 KIMTI |
| Aircraft | A319/M-SDE3FGHIRWY/LB1 |
Departure
| Time | N/A |
|---|---|
| Airport | Paro International Airport (VQPR) |
Arrival
| Time | 2026-04-27 02:57 |
|---|---|
| Airport | Tribhuvan International Airport (VNKT) |
| Time | Latitude | Longitude | Altitude | Speed | Heading |
|---|---|---|---|---|---|
| 2026-04-27 02:17 | 26.92273 | 88.75423 | 27102 ft | 417 kts | 241° |
| 2026-04-27 02:17 | 26.90724 | 88.72624 | 27502 ft | 418 kts | 242° |
| 2026-04-27 02:17 | 26.89190 | 88.69838 | 27902 ft | 420 kts | 242° |
| 2026-04-27 02:17 | 26.87659 | 88.67045 | 28283 ft | 421 kts | 242° |
| 2026-04-27 02:18 | 26.86147 | 88.64276 | 28644 ft | 423 kts | 242° |
| 2026-04-27 02:18 | 26.84615 | 88.61465 | 29000 ft | 424 kts | 242° |
| 2026-04-27 02:18 | 26.83102 | 88.58687 | 29336 ft | 426 kts | 242° |
| 2026-04-27 02:18 | 26.81558 | 88.55852 | 29669 ft | 428 kts | 242° |
| 2026-04-27 02:19 | 26.80000 | 88.52998 | 29994 ft | 430 kts | 242° |
| 2026-04-27 02:19 | 26.78946 | 88.51069 | 30185 ft | 431 kts | 242° |
| 2026-04-27 02:19 | 26.76872 | 88.47276 | 30562 ft | 434 kts | 242° |
| 2026-04-27 02:19 | 26.75299 | 88.44405 | 30914 ft | 433 kts | 241° |
| 2026-04-27 02:20 | 26.73729 | 88.41541 | 31317 ft | 431 kts | 241° |
| 2026-04-27 02:20 | 26.72268 | 88.38629 | 31706 ft | 427 kts | 248° |
| 2026-04-27 02:20 | 26.71377 | 88.35478 | 32087 ft | 424 kts | 260° |
| 2026-04-27 02:20 | 26.71139 | 88.32197 | 32459 ft | 424 kts | 271° |
| 2026-04-27 02:21 | 26.71557 | 88.28945 | 32827 ft | 425 kts | 283° |
| 2026-04-27 02:21 | 26.72623 | 88.25850 | 33194 ft | 429 kts | 295° |
| 2026-04-27 02:21 | 26.74162 | 88.22983 | 33553 ft | 431 kts | 298° |
| 2026-04-27 02:21 | 26.75748 | 88.20123 | 33751 ft | 432 kts | 298° |
| 2026-04-27 02:22 | 26.78908 | 88.14440 | 33787 ft | 428 kts | 298° |
| 2026-04-27 02:22 | 26.82067 | 88.08813 | 33803 ft | 427 kts | 298° |
| 2026-04-27 02:23 | 26.85226 | 88.03195 | 33806 ft | 426 kts | 299° |
| 2026-04-27 02:23 | 26.88374 | 87.97575 | 33829 ft | 426 kts | 299° |
| 2026-04-27 02:24 | 26.91522 | 87.91950 | 33829 ft | 425 kts | 299° |
| 2026-04-27 02:24 | 26.94655 | 87.86337 | 33837 ft | 424 kts | 299° |
| 2026-04-27 02:25 | 26.97779 | 87.80727 | 33837 ft | 425 kts | 299° |
| 2026-04-27 02:25 | 27.00908 | 87.75115 | 33837 ft | 424 kts | 299° |
| 2026-04-27 02:26 | 27.04028 | 87.69504 | 33846 ft | 423 kts | 299° |
| 2026-04-27 02:26 | 27.07135 | 87.63903 | 33848 ft | 422 kts | 300° |
| 2026-04-27 02:27 | 27.10245 | 87.58298 | 33858 ft | 422 kts | 300° |
| 2026-04-27 02:27 | 27.13322 | 87.52750 | 33860 ft | 421 kts | 300° |
| 2026-04-27 02:28 | 27.16420 | 87.47145 | 33869 ft | 420 kts | 301° |
| 2026-04-27 02:28 | 27.19473 | 87.41611 | 33874 ft | 419 kts | 300° |
| 2026-04-27 02:29 | 27.22548 | 87.36051 | 33881 ft | 418 kts | 301° |
| 2026-04-27 02:29 | 27.25604 | 87.30508 | 33882 ft | 417 kts | 301° |
| 2026-04-27 02:30 | 27.28647 | 87.24966 | 33893 ft | 416 kts | 301° |
| 2026-04-27 02:30 | 27.31470 | 87.19302 | 33811 ft | 416 kts | 292° |
| 2026-04-27 02:31 | 27.32340 | 87.16206 | 33550 ft | 416 kts | 284° |
| 2026-04-27 02:31 | 27.32933 | 87.13016 | 33288 ft | 417 kts | 283° |
| 2026-04-27 02:31 | 27.33535 | 87.09836 | 33036 ft | 416 kts | 284° |
| 2026-04-27 02:31 | 27.34157 | 87.06655 | 32779 ft | 417 kts | 284° |
| 2026-04-27 02:32 | 27.34790 | 87.03468 | 32521 ft | 418 kts | 284° |
| 2026-04-27 02:32 | 27.35424 | 87.00300 | 32280 ft | 418 kts | 285° |
| 2026-04-27 02:32 | 27.36066 | 86.97083 | 32027 ft | 419 kts | 285° |
| 2026-04-27 02:32 | 27.36699 | 86.93886 | 31775 ft | 419 kts | 285° |
| 2026-04-27 02:33 | 27.37326 | 86.90692 | 31542 ft | 418 kts | 285° |
| 2026-04-27 02:33 | 27.37949 | 86.87491 | 31294 ft | 419 kts | 285° |
| 2026-04-27 02:33 | 27.38569 | 86.84284 | 31066 ft | 419 kts | 285° |
| 2026-04-27 02:33 | 27.39186 | 86.81089 | 30828 ft | 419 kts | 285° |
| 2026-04-27 02:34 | 27.39810 | 86.77882 | 30588 ft | 418 kts | 285° |
| 2026-04-27 02:34 | 27.40438 | 86.74681 | 30354 ft | 420 kts | 285° |
| 2026-04-27 02:34 | 27.41068 | 86.71470 | 30124 ft | 421 kts | 285° |
| 2026-04-27 02:34 | 27.41698 | 86.68237 | 29875 ft | 421 kts | 285° |
| 2026-04-27 02:35 | 27.42309 | 86.65082 | 29612 ft | 422 kts | 285° |
| 2026-04-27 02:35 | 27.42937 | 86.61828 | 29339 ft | 422 kts | 285° |
| 2026-04-27 02:35 | 27.43556 | 86.58608 | 29069 ft | 421 kts | 285° |
| 2026-04-27 02:35 | 27.44170 | 86.55400 | 28808 ft | 420 kts | 285° |
| 2026-04-27 02:36 | 27.44786 | 86.52184 | 28536 ft | 418 kts | 285° |
| 2026-04-27 02:36 | 27.45399 | 86.48990 | 28278 ft | 417 kts | 285° |
| 2026-04-27 02:36 | 27.46013 | 86.45800 | 28017 ft | 416 kts | 285° |
| 2026-04-27 02:36 | 27.46626 | 86.42621 | 27763 ft | 415 kts | 285° |
| 2026-04-27 02:37 | 27.47236 | 86.39445 | 27511 ft | 414 kts | 285° |
| 2026-04-27 02:37 | 27.47844 | 86.36296 | 27255 ft | 412 kts | 285° |
| 2026-04-27 02:37 | 27.48364 | 86.33117 | 27004 ft | 413 kts | 279° |
| 2026-04-27 02:37 | 27.48448 | 86.29875 | 26751 ft | 416 kts | 271° |
| 2026-04-27 02:38 | 27.48057 | 86.26640 | 26498 ft | 419 kts | 262° |
| 2026-04-27 02:38 | 27.47197 | 86.23492 | 26248 ft | 424 kts | 253° |
| 2026-04-27 02:38 | 27.45879 | 86.20507 | 25998 ft | 430 kts | 244° |
| 2026-04-27 02:38 | 27.44218 | 86.17695 | 25748 ft | 431 kts | 242° |
| 2026-04-27 02:39 | 27.42539 | 86.14901 | 25508 ft | 429 kts | 241° |
| 2026-04-27 02:39 | 27.40874 | 86.12124 | 25262 ft | 428 kts | 241° |
| 2026-04-27 02:39 | 27.39235 | 86.09387 | 25029 ft | 426 kts | 241° |
| 2026-04-27 02:39 | 27.37580 | 86.06627 | 24791 ft | 425 kts | 241° |
| 2026-04-27 02:40 | 27.35930 | 86.03879 | 24561 ft | 424 kts | 241° |
| 2026-04-27 02:40 | 27.34283 | 86.01139 | 24324 ft | 422 kts | 241° |
| 2026-04-27 02:40 | 27.32638 | 85.98401 | 24095 ft | 421 kts | 241° |
| 2026-04-27 02:40 | 27.31001 | 85.95680 | 23863 ft | 420 kts | 241° |
| 2026-04-27 02:41 | 27.29363 | 85.92961 | 23633 ft | 420 kts | 241° |
| 2026-04-27 02:41 | 27.27722 | 85.90243 | 23408 ft | 418 kts | 241° |
| 2026-04-27 02:41 | 27.26101 | 85.87559 | 22994 ft | 416 kts | 241° |
| 2026-04-27 02:41 | 27.24475 | 85.84868 | 22579 ft | 414 kts | 241° |
| 2026-04-27 02:42 | 27.22862 | 85.82197 | 22169 ft | 411 kts | 240° |
| 2026-04-27 02:42 | 27.21262 | 85.79547 | 21758 ft | 410 kts | 240° |
| 2026-04-27 02:42 | 27.19659 | 85.76897 | 21357 ft | 408 kts | 240° |
| 2026-04-27 02:42 | 27.18070 | 85.74274 | 20960 ft | 407 kts | 240° |
| 2026-04-27 02:43 | 27.17015 | 85.72537 | 20704 ft | 406 kts | 240° |
| 2026-04-27 02:43 | 27.15423 | 85.69913 | 20311 ft | 404 kts | 240° |
| 2026-04-27 02:43 | 27.13453 | 85.66355 | 19800 ft | 398 kts | 248° |
| 2026-04-27 02:43 | 27.12735 | 85.64478 | 19545 ft | 394 kts | 253° |
| 2026-04-27 02:44 | 27.12021 | 85.61533 | 19177 ft | 389 kts | 263° |
| 2026-04-27 02:44 | 27.11750 | 85.57552 | 18691 ft | 384 kts | 273° |
| 2026-04-27 02:44 | 27.11767 | 85.54560 | 18331 ft | 383 kts | 272° |
| 2026-04-27 02:44 | 27.11774 | 85.52541 | 18087 ft | 383 kts | 272° |
| 2026-04-27 02:45 | 27.11779 | 85.49566 | 17593 ft | 379 kts | 272° |
| 2026-04-27 02:45 | 27.11776 | 85.46617 | 17078 ft | 376 kts | 272° |
| 2026-04-27 02:45 | 27.11770 | 85.43701 | 16571 ft | 371 kts | 272° |
| 2026-04-27 02:45 | 27.11766 | 85.40819 | 16069 ft | 367 kts | 272° |
| 2026-04-27 02:46 | 27.11765 | 85.37984 | 15793 ft | 357 kts | 272° |
| 2026-04-27 02:46 | 27.11764 | 85.35246 | 15672 ft | 343 kts | 272° |
| 2026-04-27 02:46 | 27.11765 | 85.32641 | 15444 ft | 335 kts | 272° |
| 2026-04-27 02:46 | 27.11879 | 85.30022 | 15057 ft | 329 kts | 279° |
| 2026-04-27 02:47 | 27.12376 | 85.27583 | 14695 ft | 324 kts | 289° |
| 2026-04-27 02:47 | 27.13225 | 85.25251 | 14324 ft | 320 kts | 297° |
| 2026-04-27 02:47 | 27.14371 | 85.23129 | 13967 ft | 318 kts | 305° |
| 2026-04-27 02:47 | 27.15802 | 85.21244 | 13611 ft | 316 kts | 314° |
| 2026-04-27 02:48 | 27.17478 | 85.19661 | 13204 ft | 315 kts | 323° |
| 2026-04-27 02:48 | 27.19360 | 85.18414 | 12803 ft | 314 kts | 331° |
| 2026-04-27 02:48 | 27.21399 | 85.17530 | 12469 ft | 312 kts | 340° |
| 2026-04-27 02:48 | 27.23514 | 85.17034 | 12179 ft | 310 kts | 349° |
| 2026-04-27 02:49 | 27.25650 | 85.16931 | 11893 ft | 309 kts | 358° |
| 2026-04-27 02:49 | 27.27784 | 85.17221 | 11625 ft | 307 kts | 7° |
| 2026-04-27 02:49 | 27.29822 | 85.17876 | 11397 ft | 304 kts | 16° |
| 2026-04-27 02:49 | 27.31769 | 85.18768 | 11169 ft | 299 kts | 17° |
| 2026-04-27 02:50 | 27.33679 | 85.19642 | 10932 ft | 293 kts | 17° |
| 2026-04-27 02:50 | 27.35562 | 85.20496 | 10700 ft | 289 kts | 17° |
| 2026-04-27 02:50 | 27.36914 | 85.21107 | 10540 ft | 286 kts | 17° |
| 2026-04-27 02:50 | 27.38775 | 85.21948 | 10321 ft | 282 kts | 17° |
| 2026-04-27 02:51 | 27.40564 | 85.22753 | 10100 ft | 279 kts | 17° |
| 2026-04-27 02:51 | 27.42374 | 85.23567 | 9904 ft | 274 kts | 17° |
| 2026-04-27 02:51 | 27.44104 | 85.24342 | 9743 ft | 268 kts | 17° |
| 2026-04-27 02:51 | 27.45832 | 85.25117 | 9578 ft | 260 kts | 17° |
| 2026-04-27 02:52 | 27.47463 | 85.25847 | 9411 ft | 252 kts | 18° |
| 2026-04-27 02:52 | 27.49064 | 85.26570 | 9276 ft | 242 kts | 19° |
| 2026-04-27 02:52 | 27.50595 | 85.27266 | 9158 ft | 233 kts | 18° |
| 2026-04-27 02:52 | 27.52063 | 85.27929 | 9079 ft | 221 kts | 18° |
| 2026-04-27 02:53 | 27.53428 | 85.28543 | 8937 ft | 201 kts | 18° |
| 2026-04-27 02:53 | 27.54718 | 85.29124 | 8599 ft | 196 kts | 18° |
| 2026-04-27 02:53 | 27.55939 | 85.29676 | 8164 ft | 187 kts | 19° |
| 2026-04-27 02:53 | 27.57123 | 85.30213 | 7690 ft | 180 kts | 19° |
| 2026-04-27 02:54 | 27.58268 | 85.30732 | 7238 ft | 175 kts | 20° |
| 2026-04-27 02:54 | 27.59382 | 85.31238 | 6831 ft | 169 kts | 20° |
| 2026-04-27 02:54 | 27.60456 | 85.31726 | 6449 ft | 165 kts | 20° |
| 2026-04-27 02:54 | 27.61510 | 85.32204 | 6073 ft | 162 kts | 20° |
| 2026-04-27 02:55 | 27.62544 | 85.32672 | 5687 ft | 158 kts | 20° |
| 2026-04-27 02:55 | 27.63533 | 85.33121 | 5455 ft | 149 kts | 21° |
| 2026-04-27 02:55 | 27.64476 | 85.33550 | 5268 ft | 145 kts | 21° |
| 2026-04-27 02:55 | 27.65406 | 85.33972 | 5059 ft | 143 kts | 21° |
| 2026-04-27 02:56 | 27.66323 | 85.34402 | 4840 ft | 142 kts | 23° |
| 2026-04-27 02:56 | 27.67231 | 85.34825 | 4634 ft | 141 kts | 19° |
| 2026-04-27 02:56 | 27.68142 | 85.35221 | 4417 ft | 140 kts | 22° |
| 2026-04-27 02:56 | 27.69022 | 85.35625 | 4358 ft | 126 kts | 22° |
| 2026-04-27 02:57 | 27.69670 | 85.35919 | 4393 ft | 76 kts | 22° |
| 2026-04-27 02:57 | 27.70031 | 85.36084 | 4400 ft | 34 kts | 22° |
| 2026-04-27 02:57 | 27.70116 | 85.36123 | 4403 ft | 8 kts | 21° |
| 2026-04-27 02:57 | 27.70166 | 85.36117 | 4404 ft | 7 kts | 341° |
| 2026-04-27 02:58 | 27.70196 | 85.36086 | 4405 ft | 6 kts | 292° |
| 2026-04-27 02:58 | 27.70187 | 85.36036 | 4403 ft | 8 kts | 236° |
| 2026-04-27 02:58 | 27.70139 | 85.36014 | 4401 ft | 7 kts | 199° |
| 2026-04-27 02:58 | 27.70124 | 85.35968 | 4397 ft | 9 kts | 295° |
| 2026-04-27 02:59 | 27.70138 | 85.35931 | 4395 ft | 4 kts | 292° |
| 2026-04-27 02:59 | 27.70141 | 85.35923 | 4394 ft | 0 kts | 293° |